sensor_id;sensor_type;location;lat;lon;timestamp;P1;durP1;ratioP1;P2;durP2;ratioP2
64562;SDS011;50961;48.184;11.636;2022-09-12T00:02:24;8.98;;;3.75;;
64562;SDS011;50961;48.184;11.636;2022-09-12T00:04:50;6.13;;;3.63;;
64562;SDS011;50961;48.184;11.636;2022-09-12T00:07:15;6.78;;;3.72;;
64562;SDS011;50961;48.184;11.636;2022-09-12T00:09:41;6.15;;;3.75;;
64562;SDS011;50961;48.184;11.636;2022-09-12T00:12:06;6.22;;;3.90;;
64562;SDS011;50961;48.184;11.636;2022-09-12T00:14:32;10.85;;;4.40;;
64562;SDS011;50961;48.184;11.636;2022-09-12T00:16:58;7.65;;;4.25;;
64562;SDS011;50961;48.184;11.636;2022-09-12T00:19:24;8.38;;;4.07;;
64562;SDS011;50961;48.184;11.636;2022-09-12T00:21:50;7.10;;;3.70;;
64562;SDS011;50961;48.184;11.636;2022-09-12T00:24:15;7.07;;;4.28;;
64562;SDS011;50961;48.184;11.636;2022-09-12T00:26:41;7.25;;;4.28;;
64562;SDS011;50961;48.184;11.636;2022-09-12T00:29:06;7.60;;;4.18;;
64562;SDS011;50961;48.184;11.636;2022-09-12T00:31:32;7.90;;;4.25;;
64562;SDS011;50961;48.184;11.636;2022-09-12T00:33:58;8.02;;;5.60;;
64562;SDS011;50961;48.184;11.636;2022-09-12T00:36:28;6.68;;;4.80;;
64562;SDS011;50961;48.184;11.636;2022-09-12T00:38:54;12.18;;;4.38;;
64562;SDS011;50961;48.184;11.636;2022-09-12T00:41:24;6.72;;;4.38;;
64562;SDS011;50961;48.184;11.636;2022-09-12T00:43:54;7.63;;;4.40;;
64562;SDS011;50961;48.184;11.636;2022-09-12T00:46:36;7.97;;;4.47;;
64562;SDS011;50961;48.184;11.636;2022-09-12T00:52:39;6.60;;;3.53;;
64562;SDS011;50961;48.184;11.636;2022-09-12T00:55:16;8.15;;;4.38;;
64562;SDS011;50961;48.184;11.636;2022-09-12T01:00:26;6.35;;;4.15;;
64562;SDS011;50961;48.184;11.636;2022-09-12T01:02:56;7.18;;;3.70;;
64562;SDS011;50961;48.184;11.636;2022-09-12T01:05:25;6.80;;;3.72;;
64562;SDS011;50961;48.184;11.636;2022-09-12T01:07:53;7.80;;;3.97;;
64562;SDS011;50961;48.184;11.636;2022-09-12T01:10:20;7.28;;;4.40;;
64562;SDS011;50961;48.184;11.636;2022-09-12T01:12:47;8.13;;;4.13;;
64562;SDS011;50961;48.184;11.636;2022-09-12T01:15:13;7.75;;;4.35;;
64562;SDS011;50961;48.184;11.636;2022-09-12T01:20:45;8.52;;;4.32;;
64562;SDS011;50961;48.184;11.636;2022-09-12T01:29:07;7.32;;;3.85;;
64562;SDS011;50961;48.184;11.636;2022-09-12T01:34:25;7.47;;;3.72;;
64562;SDS011;50961;48.184;11.636;2022-09-12T01:40:08;6.40;;;3.60;;
64562;SDS011;50961;48.184;11.636;2022-09-12T01:48:00;6.10;;;4.10;;
64562;SDS011;50961;48.184;11.636;2022-09-12T01:50:33;6.72;;;3.67;;
64562;SDS011;50961;48.184;11.636;2022-09-12T01:53:21;6.97;;;3.90;;
64562;SDS011;50961;48.184;11.636;2022-09-12T01:55:51;7.00;;;3.88;;
64562;SDS011;50961;48.184;11.636;2022-09-12T01:58:28;7.00;;;3.63;;
64562;SDS011;50961;48.184;11.636;2022-09-12T02:01:19;11.70;;;3.75;;
64562;SDS011;50961;48.184;11.636;2022-09-12T02:03:53;7.22;;;3.85;;
64562;SDS011;50961;48.184;11.636;2022-09-12T02:06:37;6.75;;;3.55;;
64562;SDS011;50961;48.184;11.636;2022-09-12T02:09:08;7.00;;;3.88;;
64562;SDS011;50961;48.184;11.636;2022-09-12T02:11:40;7.80;;;4.05;;
64562;SDS011;50961;48.184;11.636;2022-09-12T02:14:09;5.40;;;3.53;;
64562;SDS011;50961;48.184;11.636;2022-09-12T02:16:41;8.52;;;4.07;;
64562;SDS011;50961;48.184;11.636;2022-09-12T02:19:13;5.88;;;3.72;;
64562;SDS011;50961;48.184;11.636;2022-09-12T02:21:43;6.25;;;3.78;;
64562;SDS011;50961;48.184;11.636;2022-09-12T02:24:21;5.97;;;3.58;;
64562;SDS011;50961;48.184;11.636;2022-09-12T02:26:51;5.50;;;3.65;;
64562;SDS011;50961;48.184;11.636;2022-09-12T02:29:20;6.13;;;3.72;;
64562;SDS011;50961;48.184;11.636;2022-09-12T02:31:53;11.57;;;3.85;;
64562;SDS011;50961;48.184;11.636;2022-09-12T02:40:02;6.05;;;3.60;;
64562;SDS011;50961;48.184;11.636;2022-09-12T02:42:28;6.50;;;3.78;;
64562;SDS011;50961;48.184;11.636;2022-09-12T02:44:54;7.60;;;3.80;;
64562;SDS011;50961;48.184;11.636;2022-09-12T02:50:00;6.22;;;3.72;;
64562;SDS011;50961;48.184;11.636;2022-09-12T02:52:26;5.65;;;3.55;;
64562;SDS011;50961;48.184;11.636;2022-09-12T02:54:53;7.18;;;3.42;;
64562;SDS011;50961;48.184;11.636;2022-09-12T02:57:20;5.22;;;3.55;;
64562;SDS011;50961;48.184;11.636;2022-09-12T02:59:46;6.20;;;3.70;;
64562;SDS011;50961;48.184;11.636;2022-09-12T03:13:17;8.32;;;3.65;;
64562;SDS011;50961;48.184;11.636;2022-09-12T03:21:39;6.50;;;3.67;;
64562;SDS011;50961;48.184;11.636;2022-09-12T03:24:35;5.33;;;3.40;;
64562;SDS011;50961;48.184;11.636;2022-09-12T03:29:37;5.78;;;3.30;;
64562;SDS011;50961;48.184;11.636;2022-09-12T03:32:04;5.82;;;3.40;;
64562;SDS011;50961;48.184;11.636;2022-09-12T03:34:29;6.90;;;3.70;;
64562;SDS011;50961;48.184;11.636;2022-09-12T03:36:55;5.70;;;3.42;;
64562;SDS011;50961;48.184;11.636;2022-09-12T03:39:21;6.90;;;3.22;;
64562;SDS011;50961;48.184;11.636;2022-09-12T03:41:48;8.48;;;3.50;;
64562;SDS011;50961;48.184;11.636;2022-09-12T03:44:14;24.25;;;7.72;;
64562;SDS011;50961;48.184;11.636;2022-09-12T03:46:40;19.83;;;7.05;;
64562;SDS011;50961;48.184;11.636;2022-09-12T03:49:05;11.50;;;4.90;;
64562;SDS011;50961;48.184;11.636;2022-09-12T03:51:31;8.27;;;4.20;;
64562;SDS011;50961;48.184;11.636;2022-09-12T03:53:56;6.88;;;3.72;;
64562;SDS011;50961;48.184;11.636;2022-09-12T03:56:21;7.72;;;3.55;;
64562;SDS011;50961;48.184;11.636;2022-09-12T03:58:47;7.03;;;3.85;;
64562;SDS011;50961;48.184;11.636;2022-09-12T04:01:13;7.20;;;3.40;;
64562;SDS011;50961;48.184;11.636;2022-09-12T04:03:41;5.95;;;3.58;;
64562;SDS011;50961;48.184;11.636;2022-09-12T04:06:08;7.13;;;3.35;;
64562;SDS011;50961;48.184;11.636;2022-09-12T04:08:35;5.70;;;3.67;;
64562;SDS011;50961;48.184;11.636;2022-09-12T04:11:11;7.82;;;3.67;;
64562;SDS011;50961;48.184;11.636;2022-09-12T04:13:38;11.48;;;6.07;;
64562;SDS011;50961;48.184;11.636;2022-09-12T04:16:05;10.20;;;4.80;;
64562;SDS011;50961;48.184;11.636;2022-09-12T04:18:31;12.10;;;4.55;;
64562;SDS011;50961;48.184;11.636;2022-09-12T04:20:57;6.40;;;3.70;;
64562;SDS011;50961;48.184;11.636;2022-09-12T04:23:23;6.85;;;3.60;;
64562;SDS011;50961;48.184;11.636;2022-09-12T04:25:58;6.13;;;3.38;;
64562;SDS011;50961;48.184;11.636;2022-09-12T04:28:25;5.72;;;3.58;;
64562;SDS011;50961;48.184;11.636;2022-09-12T04:30:53;14.77;;;6.95;;
64562;SDS011;50961;48.184;11.636;2022-09-12T04:33:18;36.72;;;14.18;;
64562;SDS011;50961;48.184;11.636;2022-09-12T04:35:44;39.28;;;16.90;;
64562;SDS011;50961;48.184;11.636;2022-09-12T04:38:10;40.38;;;17.42;;
64562;SDS011;50961;48.184;11.636;2022-09-12T04:40:35;11.52;;;5.47;;
64562;SDS011;50961;48.184;11.636;2022-09-12T04:43:01;8.05;;;4.35;;
64562;SDS011;50961;48.184;11.636;2022-09-12T04:45:26;7.30;;;4.47;;
64562;SDS011;50961;48.184;11.636;2022-09-12T04:47:51;9.15;;;4.28;;
64562;SDS011;50961;48.184;11.636;2022-09-12T04:50:17;22.40;;;9.25;;
64562;SDS011;50961;48.184;11.636;2022-09-12T04:52:42;24.00;;;9.52;;
64562;SDS011;50961;48.184;11.636;2022-09-12T04:55:08;14.95;;;5.63;;
64562;SDS011;50961;48.184;11.636;2022-09-12T04:57:34;8.38;;;4.40;;
64562;SDS011;50961;48.184;11.636;2022-09-12T05:00:00;11.48;;;4.18;;
64562;SDS011;50961;48.184;11.636;2022-09-12T05:02:26;7.68;;;3.97;;
64562;SDS011;50961;48.184;11.636;2022-09-12T05:04:51;5.75;;;3.50;;
64562;SDS011;50961;48.184;11.636;2022-09-12T05:07:17;8.52;;;4.10;;
64562;SDS011;50961;48.184;11.636;2022-09-12T05:09:43;12.98;;;4.35;;
64562;SDS011;50961;48.184;11.636;2022-09-12T05:12:09;8.05;;;3.92;;
64562;SDS011;50961;48.184;11.636;2022-09-12T05:14:34;10.35;;;4.15;;
64562;SDS011;50961;48.184;11.636;2022-09-12T05:17:00;9.60;;;4.20;;
64562;SDS011;50961;48.184;11.636;2022-09-12T05:19:26;16.85;;;7.53;;
64562;SDS011;50961;48.184;11.636;2022-09-12T05:21:52;22.83;;;9.27;;
64562;SDS011;50961;48.184;11.636;2022-09-12T05:24:17;16.33;;;6.00;;
64562;SDS011;50961;48.184;11.636;2022-09-12T05:26:43;11.20;;;5.25;;
64562;SDS011;50961;48.184;11.636;2022-09-12T05:29:08;19.00;;;9.70;;
64562;SDS011;50961;48.184;11.636;2022-09-12T05:31:34;25.98;;;10.45;;
64562;SDS011;50961;48.184;11.636;2022-09-12T05:33:59;22.02;;;8.60;;
64562;SDS011;50961;48.184;11.636;2022-09-12T05:36:26;13.90;;;5.30;;
64562;SDS011;50961;48.184;11.636;2022-09-12T05:38:53;8.75;;;4.82;;
64562;SDS011;50961;48.184;11.636;2022-09-12T05:41:23;9.25;;;4.68;;
64562;SDS011;50961;48.184;11.636;2022-09-12T05:43:51;21.52;;;8.80;;
64562;SDS011;50961;48.184;11.636;2022-09-12T05:46:19;16.27;;;8.05;;
64562;SDS011;50961;48.184;11.636;2022-09-12T05:48:46;14.48;;;7.15;;
64562;SDS011;50961;48.184;11.636;2022-09-12T05:51:16;10.48;;;5.20;;
64562;SDS011;50961;48.184;11.636;2022-09-12T05:53:46;8.52;;;4.95;;
64562;SDS011;50961;48.184;11.636;2022-09-12T05:56:18;15.50;;;6.38;;
64562;SDS011;50961;48.184;11.636;2022-09-12T05:58:46;16.33;;;6.93;;
64562;SDS011;50961;48.184;11.636;2022-09-12T06:01:13;14.35;;;6.93;;
64562;SDS011;50961;48.184;11.636;2022-09-12T06:03:50;11.82;;;5.70;;
64562;SDS011;50961;48.184;11.636;2022-09-12T06:06:17;21.00;;;8.68;;
64562;SDS011;50961;48.184;11.636;2022-09-12T06:08:45;20.13;;;8.57;;
64562;SDS011;50961;48.184;11.636;2022-09-12T06:11:14;10.23;;;5.72;;
64562;SDS011;50961;48.184;11.636;2022-09-12T06:13:41;10.43;;;4.80;;
64562;SDS011;50961;48.184;11.636;2022-09-12T06:18:33;9.05;;;4.88;;
64562;SDS011;50961;48.184;11.636;2022-09-12T06:21:07;10.88;;;6.55;;
64562;SDS011;50961;48.184;11.636;2022-09-12T06:23:34;11.15;;;5.00;;
64562;SDS011;50961;48.184;11.636;2022-09-12T06:26:00;10.10;;;4.90;;
64562;SDS011;50961;48.184;11.636;2022-09-12T06:28:27;8.20;;;4.38;;
64562;SDS011;50961;48.184;11.636;2022-09-12T06:30:53;7.10;;;4.13;;
64562;SDS011;50961;48.184;11.636;2022-09-12T06:33:18;10.90;;;4.45;;
64562;SDS011;50961;48.184;11.636;2022-09-12T06:35:43;12.32;;;5.40;;
64562;SDS011;50961;48.184;11.636;2022-09-12T06:38:09;12.65;;;4.20;;
64562;SDS011;50961;48.184;11.636;2022-09-12T06:40:40;10.68;;;4.50;;
64562;SDS011;50961;48.184;11.636;2022-09-12T06:43:09;15.32;;;6.80;;
64562;SDS011;50961;48.184;11.636;2022-09-12T06:45:36;13.50;;;6.80;;
64562;SDS011;50961;48.184;11.636;2022-09-12T06:48:01;10.25;;;5.35;;
64562;SDS011;50961;48.184;11.636;2022-09-12T06:50:27;10.35;;;4.50;;
64562;SDS011;50961;48.184;11.636;2022-09-12T06:52:52;8.77;;;4.70;;
64562;SDS011;50961;48.184;11.636;2022-09-12T06:55:17;8.63;;;4.22;;
64562;SDS011;50961;48.184;11.636;2022-09-12T06:57:43;8.15;;;3.67;;
64562;SDS011;50961;48.184;11.636;2022-09-12T07:00:08;9.68;;;4.25;;
64562;SDS011;50961;48.184;11.636;2022-09-12T07:02:34;11.02;;;5.00;;
64562;SDS011;50961;48.184;11.636;2022-09-12T07:05:00;11.10;;;4.57;;
64562;SDS011;50961;48.184;11.636;2022-09-12T07:07:25;13.57;;;4.75;;
64562;SDS011;50961;48.184;11.636;2022-09-12T07:09:50;7.97;;;3.78;;
64562;SDS011;50961;48.184;11.636;2022-09-12T07:12:16;9.77;;;3.92;;
64562;SDS011;50961;48.184;11.636;2022-09-12T07:14:41;11.95;;;4.07;;
64562;SDS011;50961;48.184;11.636;2022-09-12T07:17:06;16.70;;;4.55;;
64562;SDS011;50961;48.184;11.636;2022-09-12T07:19:32;17.85;;;4.40;;
64562;SDS011;50961;48.184;11.636;2022-09-12T07:21:58;12.20;;;4.07;;
64562;SDS011;50961;48.184;11.636;2022-09-12T07:24:23;19.20;;;5.28;;
64562;SDS011;50961;48.184;11.636;2022-09-12T07:26:48;17.13;;;4.80;;
64562;SDS011;50961;48.184;11.636;2022-09-12T07:29:14;11.38;;;4.55;;
64562;SDS011;50961;48.184;11.636;2022-09-12T07:31:41;9.23;;;4.00;;
64562;SDS011;50961;48.184;11.636;2022-09-12T07:34:06;7.95;;;3.78;;
64562;SDS011;50961;48.184;11.636;2022-09-12T07:36:32;8.43;;;3.58;;
64562;SDS011;50961;48.184;11.636;2022-09-12T07:38:58;10.63;;;4.47;;
64562;SDS011;50961;48.184;11.636;2022-09-12T07:41:27;9.35;;;4.03;;
64562;SDS011;50961;48.184;11.636;2022-09-12T07:43:54;6.70;;;3.47;;
64562;SDS011;50961;48.184;11.636;2022-09-12T07:46:22;6.22;;;3.40;;
64562;SDS011;50961;48.184;11.636;2022-09-12T07:48:52;8.85;;;3.47;;
64562;SDS011;50961;48.184;11.636;2022-09-12T07:51:19;9.48;;;3.80;;
64562;SDS011;50961;48.184;11.636;2022-09-12T07:53:44;6.05;;;3.90;;
64562;SDS011;50961;48.184;11.636;2022-09-12T07:56:10;7.15;;;4.15;;
64562;SDS011;50961;48.184;11.636;2022-09-12T07:58:37;6.15;;;3.70;;
64562;SDS011;50961;48.184;11.636;2022-09-12T08:01:05;6.97;;;3.33;;
64562;SDS011;50961;48.184;11.636;2022-09-12T08:03:33;6.80;;;3.42;;
64562;SDS011;50961;48.184;11.636;2022-09-12T08:06:06;8.45;;;3.90;;
64562;SDS011;50961;48.184;11.636;2022-09-12T08:08:34;8.18;;;4.00;;
64562;SDS011;50961;48.184;11.636;2022-09-12T08:11:02;9.20;;;3.95;;
64562;SDS011;50961;48.184;11.636;2022-09-12T08:13:30;6.88;;;3.30;;
64562;SDS011;50961;48.184;11.636;2022-09-12T08:15:57;10.18;;;3.80;;
64562;SDS011;50961;48.184;11.636;2022-09-12T08:18:24;31.58;;;5.00;;
64562;SDS011;50961;48.184;11.636;2022-09-12T08:20:59;16.85;;;5.00;;
64562;SDS011;50961;48.184;11.636;2022-09-12T08:23:26;14.30;;;5.95;;
64562;SDS011;50961;48.184;11.636;2022-09-12T08:25:59;10.23;;;3.90;;
64562;SDS011;50961;48.184;11.636;2022-09-12T08:28:27;21.95;;;4.07;;
64562;SDS011;50961;48.184;11.636;2022-09-12T08:30:53;16.73;;;4.07;;
64562;SDS011;50961;48.184;11.636;2022-09-12T08:33:24;10.10;;;3.95;;
64562;SDS011;50961;48.184;11.636;2022-09-12T08:35:51;26.95;;;4.70;;
64562;SDS011;50961;48.184;11.636;2022-09-12T08:38:16;27.05;;;4.60;;
64562;SDS011;50961;48.184;11.636;2022-09-12T08:40:53;5.80;;;3.40;;
64562;SDS011;50961;48.184;11.636;2022-09-12T08:46:01;12.70;;;4.60;;
64562;SDS011;50961;48.184;11.636;2022-09-12T08:48:32;8.75;;;3.42;;
64562;SDS011;50961;48.184;11.636;2022-09-12T08:50:58;7.40;;;3.08;;
64562;SDS011;50961;48.184;11.636;2022-09-12T08:53:25;6.25;;;3.30;;
64562;SDS011;50961;48.184;11.636;2022-09-12T08:55:57;7.07;;;3.70;;
64562;SDS011;50961;48.184;11.636;2022-09-12T08:58:24;6.22;;;3.20;;
64562;SDS011;50961;48.184;11.636;2022-09-12T09:09:14;6.78;;;3.40;;
64562;SDS011;50961;48.184;11.636;2022-09-12T09:11:51;7.57;;;3.47;;
64562;SDS011;50961;48.184;11.636;2022-09-12T09:17:25;8.38;;;3.67;;
64562;SDS011;50961;48.184;11.636;2022-09-12T09:22:48;26.13;;;5.20;;
64562;SDS011;50961;48.184;11.636;2022-09-12T09:25:20;24.70;;;5.07;;
64562;SDS011;50961;48.184;11.636;2022-09-12T09:27:52;22.67;;;5.13;;
64562;SDS011;50961;48.184;11.636;2022-09-12T09:30:25;14.52;;;4.68;;
64562;SDS011;50961;48.184;11.636;2022-09-12T09:32:53;9.23;;;4.60;;
64562;SDS011;50961;48.184;11.636;2022-09-12T09:38:27;9.90;;;4.68;;
64562;SDS011;50961;48.184;11.636;2022-09-12T09:41:22;10.88;;;4.97;;
64562;SDS011;50961;48.184;11.636;2022-09-12T09:43:49;8.57;;;4.30;;
64562;SDS011;50961;48.184;11.636;2022-09-12T09:46:15;9.65;;;5.03;;
64562;SDS011;50961;48.184;11.636;2022-09-12T09:48:40;9.18;;;4.53;;
64562;SDS011;50961;48.184;11.636;2022-09-12T09:51:16;11.55;;;4.68;;
64562;SDS011;50961;48.184;11.636;2022-09-12T09:59:06;8.75;;;5.03;;
64562;SDS011;50961;48.184;11.636;2022-09-12T10:01:51;11.07;;;5.45;;
64562;SDS011;50961;48.184;11.636;2022-09-12T10:04:23;21.60;;;6.53;;
64562;SDS011;50961;48.184;11.636;2022-09-12T10:06:53;13.48;;;5.57;;
64562;SDS011;50961;48.184;11.636;2022-09-12T10:09:23;9.55;;;5.57;;
64562;SDS011;50961;48.184;11.636;2022-09-12T10:11:51;11.35;;;4.95;;
64562;SDS011;50961;48.184;11.636;2022-09-12T10:14:26;13.15;;;6.13;;
64562;SDS011;50961;48.184;11.636;2022-09-12T10:16:54;12.93;;;5.50;;
64562;SDS011;50961;48.184;11.636;2022-09-12T10:19:33;12.55;;;5.15;;
64562;SDS011;50961;48.184;11.636;2022-09-12T10:22:00;7.97;;;5.18;;
64562;SDS011;50961;48.184;11.636;2022-09-12T10:24:29;14.25;;;5.40;;
64562;SDS011;50961;48.184;11.636;2022-09-12T10:26:57;9.18;;;4.63;;
64562;SDS011;50961;48.184;11.636;2022-09-12T10:29:32;9.82;;;4.55;;
64562;SDS011;50961;48.184;11.636;2022-09-12T10:32:05;53.38;;;7.40;;
64562;SDS011;50961;48.184;11.636;2022-09-12T10:34:44;26.67;;;6.07;;
64562;SDS011;50961;48.184;11.636;2022-09-12T10:40:02;11.88;;;4.90;;
64562;SDS011;50961;48.184;11.636;2022-09-12T10:45:16;25.90;;;5.50;;
64562;SDS011;50961;48.184;11.636;2022-09-12T10:47:47;25.60;;;6.25;;
64562;SDS011;50961;48.184;11.636;2022-09-12T10:50:26;9.05;;;5.15;;
64562;SDS011;50961;48.184;11.636;2022-09-12T10:52:54;29.55;;;6.55;;
64562;SDS011;50961;48.184;11.636;2022-09-12T10:55:37;15.65;;;5.63;;
64562;SDS011;50961;48.184;11.636;2022-09-12T10:58:20;28.52;;;6.20;;
64562;SDS011;50961;48.184;11.636;2022-09-12T11:06:44;10.88;;;5.40;;
64562;SDS011;50961;48.184;11.636;2022-09-12T11:09:17;11.13;;;4.28;;
64562;SDS011;50961;48.184;11.636;2022-09-12T11:11:59;6.68;;;4.13;;
64562;SDS011;50961;48.184;11.636;2022-09-12T11:31:16;13.80;;;4.45;;
64562;SDS011;50961;48.184;11.636;2022-09-12T11:33:52;12.27;;;3.90;;
64562;SDS011;50961;48.184;11.636;2022-09-12T11:36:24;34.97;;;6.25;;
64562;SDS011;50961;48.184;11.636;2022-09-12T11:39:02;13.45;;;4.05;;
64562;SDS011;50961;48.184;11.636;2022-09-12T11:41:37;10.85;;;4.00;;
64562;SDS011;50961;48.184;11.636;2022-09-12T11:44:17;9.35;;;4.07;;
64562;SDS011;50961;48.184;11.636;2022-09-12T11:46:48;8.23;;;4.03;;
64562;SDS011;50961;48.184;11.636;2022-09-12T11:49:32;14.55;;;6.90;;
64562;SDS011;50961;48.184;11.636;2022-09-12T11:54:59;11.75;;;4.10;;
64562;SDS011;50961;48.184;11.636;2022-09-12T11:59:57;8.60;;;4.25;;
64562;SDS011;50961;48.184;11.636;2022-09-12T12:02:50;13.25;;;4.10;;
64562;SDS011;50961;48.184;11.636;2022-09-12T12:05:41;10.23;;;3.92;;
64562;SDS011;50961;48.184;11.636;2022-09-12T12:08:30;27.50;;;4.47;;
64562;SDS011;50961;48.184;11.636;2022-09-12T12:11:02;20.95;;;4.13;;
64562;SDS011;50961;48.184;11.636;2022-09-12T12:15:56;22.67;;;4.65;;
64562;SDS011;50961;48.184;11.636;2022-09-12T12:18:28;10.32;;;3.85;;
64562;SDS011;50961;48.184;11.636;2022-09-12T12:20:55;58.20;;;6.72;;
64562;SDS011;50961;48.184;11.636;2022-09-12T12:23:39;76.88;;;9.43;;
64562;SDS011;50961;48.184;11.636;2022-09-12T12:29:02;14.90;;;4.25;;
64562;SDS011;50961;48.184;11.636;2022-09-12T12:31:29;14.13;;;3.95;;
64562;SDS011;50961;48.184;11.636;2022-09-12T12:33:59;11.43;;;3.40;;
64562;SDS011;50961;48.184;11.636;2022-09-12T12:39:02;36.60;;;5.03;;
64562;SDS011;50961;48.184;11.636;2022-09-12T12:45:45;13.63;;;3.80;;
64562;SDS011;50961;48.184;11.636;2022-09-12T12:47:51;11.70;;;3.40;;
64562;SDS011;50961;48.184;11.636;2022-09-12T12:55:29;17.50;;;4.00;;
64562;SDS011;50961;48.184;11.636;2022-09-12T13:00:48;12.10;;;3.58;;
64562;SDS011;50961;48.184;11.636;2022-09-12T13:03:28;6.65;;;3.10;;
64562;SDS011;50961;48.184;11.636;2022-09-12T13:05:59;4.05;;;2.78;;
64562;SDS011;50961;48.184;11.636;2022-09-12T13:08:28;9.73;;;3.28;;
64562;SDS011;50961;48.184;11.636;2022-09-12T13:16:38;3.15;;;2.50;;
64562;SDS011;50961;48.184;11.636;2022-09-12T13:19:21;9.27;;;3.60;;
64562;SDS011;50961;48.184;11.636;2022-09-12T13:21:54;10.20;;;3.63;;
64562;SDS011;50961;48.184;11.636;2022-09-12T13:24:21;6.65;;;3.03;;
64562;SDS011;50961;48.184;11.636;2022-09-12T13:26:48;8.30;;;2.90;;
64562;SDS011;50961;48.184;11.636;2022-09-12T13:29:14;8.27;;;2.90;;
64562;SDS011;50961;48.184;11.636;2022-09-12T13:31:42;12.95;;;3.13;;
64562;SDS011;50961;48.184;11.636;2022-09-12T13:34:09;12.73;;;3.13;;
64562;SDS011;50961;48.184;11.636;2022-09-12T13:36:45;23.70;;;3.80;;
64562;SDS011;50961;48.184;11.636;2022-09-12T13:45:10;9.10;;;2.92;;
64562;SDS011;50961;48.184;11.636;2022-09-12T13:47:44;10.95;;;3.03;;
64562;SDS011;50961;48.184;11.636;2022-09-12T13:50:13;8.20;;;3.22;;
64562;SDS011;50961;48.184;11.636;2022-09-12T13:52:44;17.33;;;4.38;;
64562;SDS011;50961;48.184;11.636;2022-09-12T13:55:35;12.05;;;3.00;;
64562;SDS011;50961;48.184;11.636;2022-09-12T13:58:04;24.60;;;3.97;;
64562;SDS011;50961;48.184;11.636;2022-09-12T14:04:14;11.20;;;2.70;;
64562;SDS011;50961;48.184;11.636;2022-09-12T14:06:59;13.85;;;3.53;;
64562;SDS011;50961;48.184;11.636;2022-09-12T14:09:37;20.75;;;3.60;;
64562;SDS011;50961;48.184;11.636;2022-09-12T14:12:22;14.85;;;3.22;;
64562;SDS011;50961;48.184;11.636;2022-09-12T14:14:51;4.97;;;2.35;;
64562;SDS011;50961;48.184;11.636;2022-09-12T14:17:18;7.40;;;3.72;;
64562;SDS011;50961;48.184;11.636;2022-09-12T14:20:05;8.02;;;2.90;;
64562;SDS011;50961;48.184;11.636;2022-09-12T14:22:33;22.70;;;3.92;;
64562;SDS011;50961;48.184;11.636;2022-09-12T14:24:59;13.30;;;3.22;;
64562;SDS011;50961;48.184;11.636;2022-09-12T14:27:26;15.13;;;3.38;;
64562;SDS011;50961;48.184;11.636;2022-09-12T14:30:18;18.90;;;3.33;;
64562;SDS011;50961;48.184;11.636;2022-09-12T14:35:51;31.15;;;4.35;;
64562;SDS011;50961;48.184;11.636;2022-09-12T14:38:42;24.15;;;3.50;;
64562;SDS011;50961;48.184;11.636;2022-09-12T14:41:09;6.90;;;2.40;;
64562;SDS011;50961;48.184;11.636;2022-09-12T14:43:43;5.90;;;2.40;;
64562;SDS011;50961;48.184;11.636;2022-09-12T14:46:17;6.90;;;2.40;;
64562;SDS011;50961;48.184;11.636;2022-09-12T14:51:39;15.38;;;3.03;;
64562;SDS011;50961;48.184;11.636;2022-09-12T14:54:32;12.88;;;2.80;;
64562;SDS011;50961;48.184;11.636;2022-09-12T14:56:54;14.25;;;4.57;;
64562;SDS011;50961;48.184;11.636;2022-09-12T14:59:29;15.32;;;4.15;;
64562;SDS011;50961;48.184;11.636;2022-09-12T15:04:40;20.88;;;3.95;;
64562;SDS011;50961;48.184;11.636;2022-09-12T15:07:19;9.30;;;2.80;;
64562;SDS011;50961;48.184;11.636;2022-09-12T15:09:50;16.63;;;3.03;;
64562;SDS011;50961;48.184;11.636;2022-09-12T15:12:17;6.90;;;2.72;;
64562;SDS011;50961;48.184;11.636;2022-09-12T15:14:42;7.70;;;2.85;;
64562;SDS011;50961;48.184;11.636;2022-09-12T15:17:07;10.45;;;4.93;;
64562;SDS011;50961;48.184;11.636;2022-09-12T15:19:33;12.93;;;4.35;;
64562;SDS011;50961;48.184;11.636;2022-09-12T15:21:58;7.90;;;4.00;;
64562;SDS011;50961;48.184;11.636;2022-09-12T15:24:23;12.63;;;4.43;;
64562;SDS011;50961;48.184;11.636;2022-09-12T15:26:49;25.95;;;6.10;;
64562;SDS011;50961;48.184;11.636;2022-09-12T15:29:14;20.48;;;4.18;;
64562;SDS011;50961;48.184;11.636;2022-09-12T15:31:40;20.10;;;3.42;;
64562;SDS011;50961;48.184;11.636;2022-09-12T15:34:05;21.20;;;3.67;;
64562;SDS011;50961;48.184;11.636;2022-09-12T15:36:32;35.42;;;4.72;;
64562;SDS011;50961;48.184;11.636;2022-09-12T15:38:58;28.40;;;4.00;;
64562;SDS011;50961;48.184;11.636;2022-09-12T15:44:02;13.48;;;3.38;;
64562;SDS011;50961;48.184;11.636;2022-09-12T15:46:34;14.68;;;2.95;;
64562;SDS011;50961;48.184;11.636;2022-09-12T15:49:00;4.10;;;2.30;;
64562;SDS011;50961;48.184;11.636;2022-09-12T15:51:25;7.15;;;2.40;;
64562;SDS011;50961;48.184;11.636;2022-09-12T15:53:50;14.15;;;3.28;;
64562;SDS011;50961;48.184;11.636;2022-09-12T15:56:17;14.13;;;3.15;;
64562;SDS011;50961;48.184;11.636;2022-09-12T15:58:45;8.25;;;3.63;;
64562;SDS011;50961;48.184;11.636;2022-09-12T16:01:11;24.95;;;4.60;;
64562;SDS011;50961;48.184;11.636;2022-09-12T16:03:37;29.25;;;4.43;;
64562;SDS011;50961;48.184;11.636;2022-09-12T16:06:03;14.15;;;3.13;;
64562;SDS011;50961;48.184;11.636;2022-09-12T16:08:29;13.82;;;3.28;;
64562;SDS011;50961;48.184;11.636;2022-09-12T16:11:18;6.03;;;2.80;;
64562;SDS011;50961;48.184;11.636;2022-09-12T16:13:43;8.50;;;2.83;;
64562;SDS011;50961;48.184;11.636;2022-09-12T16:16:08;15.90;;;3.25;;
64562;SDS011;50961;48.184;11.636;2022-09-12T16:18:34;14.00;;;3.28;;
64562;SDS011;50961;48.184;11.636;2022-09-12T16:20:59;13.45;;;2.97;;
64562;SDS011;50961;48.184;11.636;2022-09-12T16:23:25;6.65;;;2.85;;
64562;SDS011;50961;48.184;11.636;2022-09-12T16:28:26;5.85;;;2.97;;
64562;SDS011;50961;48.184;11.636;2022-09-12T16:30:55;6.30;;;3.55;;
64562;SDS011;50961;48.184;11.636;2022-09-12T16:33:25;5.88;;;3.40;;
64562;SDS011;50961;48.184;11.636;2022-09-12T16:35:50;5.72;;;3.20;;
64562;SDS011;50961;48.184;11.636;2022-09-12T16:38:19;3.58;;;2.95;;
64562;SDS011;50961;48.184;11.636;2022-09-12T16:40:45;4.68;;;3.10;;
64562;SDS011;50961;48.184;11.636;2022-09-12T16:43:11;3.38;;;2.78;;
64562;SDS011;50961;48.184;11.636;2022-09-12T16:45:37;3.75;;;2.40;;
64562;SDS011;50961;48.184;11.636;2022-09-12T16:48:03;4.47;;;2.85;;
64562;SDS011;50961;48.184;11.636;2022-09-12T16:50:28;3.78;;;2.90;;
64562;SDS011;50961;48.184;11.636;2022-09-12T16:52:54;12.13;;;8.25;;
64562;SDS011;50961;48.184;11.636;2022-09-12T16:55:19;9.23;;;5.85;;
64562;SDS011;50961;48.184;11.636;2022-09-12T16:57:46;6.20;;;3.80;;
64562;SDS011;50961;48.184;11.636;2022-09-12T17:00:13;4.82;;;3.08;;
64562;SDS011;50961;48.184;11.636;2022-09-12T17:02:39;4.25;;;2.72;;
64562;SDS011;50961;48.184;11.636;2022-09-12T17:05:04;8.02;;;4.70;;
64562;SDS011;50961;48.184;11.636;2022-09-12T17:07:30;8.93;;;4.90;;
64562;SDS011;50961;48.184;11.636;2022-09-12T17:09:55;6.47;;;3.55;;
64562;SDS011;50961;48.184;11.636;2022-09-12T17:12:21;6.28;;;3.30;;
64562;SDS011;50961;48.184;11.636;2022-09-12T17:14:48;4.70;;;3.00;;
64562;SDS011;50961;48.184;11.636;2022-09-12T17:17:13;5.13;;;3.08;;
64562;SDS011;50961;48.184;11.636;2022-09-12T17:19:39;5.55;;;3.00;;
64562;SDS011;50961;48.184;11.636;2022-09-12T17:22:04;3.97;;;2.95;;
64562;SDS011;50961;48.184;11.636;2022-09-12T17:24:29;6.05;;;3.40;;
64562;SDS011;50961;48.184;11.636;2022-09-12T17:26:55;4.38;;;3.30;;